Time;durP1;ratioP1;P1;durP2;ratioP2;P2;SDS_P1;SDS_P2;PMS_P1;PMS_P2;Temp;Humidity;BMP_temperature;BMP_pressure;BME280_temperature;BME280_humidity;BME280_pressure;Samples;Min_cycle;Max_cycle;Signal;HPM_P1;HPM_P2
2022/01/16 00:00:20;;;;;;;37.60;20.20;;;3.80;99.90;;;;;;4163650;28;20048;-64
2022/01/16 00:04:40;;;;;;;31.80;17.40;;;3.80;99.90;;;;;;4164673;28;20049;-64
2022/01/16 00:06:43;;;;;;;28.52;16.60;;;3.90;99.90;;;;;;4163771;28;20525;-64
2022/01/16 00:08:44;;;;;;;36.47;19.75;;;3.90;99.90;;;;;;4164284;28;20037;-64
2022/01/16 00:10:45;;;;;;;43.60;21.27;;;3.90;99.90;;;;;;4163754;28;20041;-64
2022/01/16 00:12:48;;;;;;;32.88;19.08;;;3.90;99.90;;;;;;4163418;28;20040;-64
2022/01/16 00:14:49;;;;;;;31.38;18.30;;;3.90;99.90;;;;;;4164493;28;20048;-64
2022/01/16 00:16:50;;;;;;;35.15;19.30;;;3.90;99.90;;;;;;4163394;28;20132;-68
2022/01/16 00:18:52;;;;;;;34.33;18.48;;;3.90;99.90;;;;;;4164226;28;20046;-65
2022/01/16 00:20:53;;;;;;;33.20;18.17;;;3.80;99.90;;;;;;4164027;28;20140;-64
2022/01/16 00:22:55;;;;;;;31.58;17.98;;;3.90;99.90;;;;;;4164483;28;20461;-64
2022/01/16 00:24:56;;;;;;;29.90;17.10;;;3.90;99.90;;;;;;4160032;28;20048;-64
2022/01/16 00:26:56;;;;;;;32.17;17.83;;;3.90;99.90;;;;;;4163840;28;20041;-64
2022/01/16 00:28:57;;;;;;;32.22;18.05;;;3.90;99.90;;;;;;4164057;28;20037;-64
2022/01/16 00:30:57;;;;;;;37.00;19.70;;;3.90;99.90;;;;;;4162110;28;20469;-64
2022/01/16 00:33:00;;;;;;;28.27;16.63;;;3.90;99.90;;;;;;4164072;28;20048;-64
2022/01/16 00:35:02;;;;;;;34.10;18.00;;;3.90;99.90;;;;;;4163998;28;20049;-64
2022/01/16 00:37:02;;;;;;;39.92;19.90;;;3.90;99.90;;;;;;4163678;28;20042;-64
2022/01/16 00:39:04;;;;;;;36.38;19.38;;;4.00;99.90;;;;;;4164008;28;20029;-64
2022/01/16 00:41:05;;;;;;;34.05;18.70;;;3.90;99.90;;;;;;4163546;28;20037;-64
2022/01/16 00:43:06;;;;;;;34.67;18.80;;;3.90;99.90;;;;;;4163921;28;20463;-64
2022/01/16 00:45:07;;;;;;;33.78;18.33;;;3.90;99.90;;;;;;4163126;28;20037;-67
2022/01/16 00:47:07;;;;;;;30.92;17.48;;;3.90;99.90;;;;;;4163194;28;20034;-64
2022/01/16 00:49:08;;;;;;;38.88;19.48;;;3.80;99.90;;;;;;4164092;28;20400;-64
2022/01/16 00:51:09;;;;;;;34.72;18.40;;;3.80;99.90;;;;;;4163256;28;20086;-64
2022/01/16 00:53:10;;;;;;;35.60;18.48;;;3.80;99.90;;;;;;4163698;28;20042;-64
2022/01/16 00:55:11;;;;;;;31.38;17.20;;;3.90;99.90;;;;;;4162441;28;20044;-66
2022/01/16 00:57:11;;;;;;;34.83;18.75;;;4.00;99.90;;;;;;4163682;28;20045;-64
2022/01/16 00:59:12;;;;;;;37.28;18.88;;;4.00;99.90;;;;;;4163811;28;20385;-64
2022/01/16 01:01:14;;;;;;;38.03;20.75;;;4.00;99.90;;;;;;4162258;28;20044;-64
2022/01/16 01:03:15;;;;;;;36.47;19.27;;;4.00;99.90;;;;;;4163639;28;20030;-64
2022/01/16 01:05:16;;;;;;;41.72;22.48;;;4.00;99.90;;;;;;4162888;28;20057;-64
2022/01/16 01:07:17;;;;;;;36.88;20.48;;;4.00;99.90;;;;;;4163783;28;20427;-64
2022/01/16 01:09:18;;;;;;;39.55;19.90;;;4.00;99.90;;;;;;4161288;28;20125;-64
2022/01/16 01:11:24;;;;;;;37.63;20.17;;;4.00;99.90;;;;;;4162696;28;20037;-64
2022/01/16 01:15:40;;;;;;;37.38;20.67;;;4.00;99.90;;;;;;4161998;28;20056;-64
2022/01/16 01:17:45;;;;;;;54.45;25.38;;;4.00;99.90;;;;;;4163757;28;20041;-64
2022/01/16 01:19:46;;;;;;;51.17;25.20;;;4.00;99.90;;;;;;4163358;28;20044;-64
2022/01/16 01:21:47;;;;;;;47.88;23.20;;;3.90;99.90;;;;;;4162638;28;20476;-64
2022/01/16 01:23:47;;;;;;;47.55;23.38;;;4.00;99.90;;;;;;4163638;28;20037;-64
2022/01/16 01:25:48;;;;;;;42.13;22.40;;;4.00;99.90;;;;;;4162185;28;20099;-64
2022/01/16 01:27:49;;;;;;;46.15;23.33;;;4.00;99.90;;;;;;4163221;28;20033;-64
2022/01/16 01:29:59;;;;;;;49.85;24.52;;;4.10;99.90;;;;;;4163341;28;20037;-66
2022/01/16 01:32:01;;;;;;;50.95;23.63;;;4.10;99.90;;;;;;4162280;28;20088;-64
2022/01/16 01:34:01;;;;;;;42.28;22.77;;;4.00;99.90;;;;;;4163151;28;20473;-64
2022/01/16 01:36:02;;;;;;;41.85;22.02;;;4.00;99.90;;;;;;4162520;28;20052;-64
2022/01/16 01:38:03;;;;;;;44.53;23.10;;;4.10;99.90;;;;;;4163312;28;20432;-64
2022/01/16 01:40:08;;;;;;;37.17;21.30;;;4.00;99.90;;;;;;4162937;28;20096;-66
2022/01/16 01:42:11;;;;;;;52.38;24.65;;;4.00;99.90;;;;;;4162086;28;20454;-64
2022/01/16 01:51:12;;;;;;;42.75;20.52;;;4.00;99.90;;;;;;4161899;28;21865;-64
2022/01/16 01:53:15;;;;;;;46.25;21.98;;;3.90;99.90;;;;;;4163065;28;20047;-64
2022/01/16 01:55:16;;;;;;;46.80;22.75;;;4.00;99.90;;;;;;4162155;28;20156;-64
2022/01/16 01:57:17;;;;;;;51.28;24.15;;;4.00;99.90;;;;;;4161669;28;20033;-64
2022/01/16 01:59:17;;;;;;;45.15;22.10;;;3.90;99.90;;;;;;4161914;28;20037;-64
2022/01/16 02:01:18;;;;;;;45.15;22.85;;;3.90;99.90;;;;;;4161710;28;20492;-64
2022/01/16 02:05:30;;;;;;;43.20;22.75;;;4.00;99.90;;;;;;4161459;28;20469;-64
2022/01/16 02:07:30;;;;;;;40.45;20.02;;;3.90;99.90;;;;;;4163117;28;20373;-64
2022/01/16 02:09:32;;;;;;;37.88;20.58;;;3.90;99.90;;;;;;4161477;28;20130;-64
2022/01/16 02:11:34;;;;;;;43.60;22.25;;;3.80;99.90;;;;;;4162036;28;20034;-64
2022/01/16 02:13:46;;;;;;;38.77;21.33;;;3.80;99.90;;;;;;4162694;28;20030;-64
2022/01/16 02:30:35;;;;;;;35.05;18.38;;;3.80;99.90;;;;;;4159569;28;20052;-65
2022/01/16 02:32:02;;;;;;;39.97;20.33;;;3.80;99.90;;;;;;4157814;28;20121;-64
2022/01/16 02:36:31;;;;;;;40.20;20.30;;;3.80;99.90;;;;;;4162164;28;20037;-65
2022/01/16 02:38:31;;;;;;;38.40;20.17;;;3.80;99.90;;;;;;4158541;28;20041;-65
2022/01/16 02:40:32;;;;;;;35.00;18.00;;;3.80;99.90;;;;;;4161344;28;20087;-65
2022/01/16 02:42:38;;;;;;;35.13;18.63;;;3.80;99.90;;;;;;4162559;28;20057;-65
2022/01/16 02:44:46;;;;;;;38.65;20.75;;;3.80;99.90;;;;;;4158327;28;20041;-64
2022/01/16 02:46:47;;;;;;;40.20;20.85;;;3.80;99.90;;;;;;4162199;28;20088;-64
2022/01/16 02:48:54;;;;;;;39.17;19.65;;;3.80;99.90;;;;;;4162432;28;20048;-64
2022/01/16 02:50:54;;;;;;;40.80;19.90;;;3.80;99.90;;;;;;4157893;28;20038;-64
2022/01/16 02:52:55;;;;;;;35.80;18.98;;;3.80;99.90;;;;;;4162971;28;20065;-64
2022/01/16 02:54:57;;;;;;;41.03;20.88;;;3.80;99.90;;;;;;4162932;28;20044;-65
2022/01/16 02:56:58;;;;;;;40.88;20.33;;;3.80;99.90;;;;;;4161978;28;20034;-64
2022/01/16 02:58:58;;;;;;;40.95;20.77;;;3.70;99.90;;;;;;4162662;28;20033;-64
2022/01/16 03:00:59;;;;;;;35.05;18.75;;;3.70;99.90;;;;;;4161495;28;20038;-65
2022/01/16 03:03:00;;;;;;;40.10;20.23;;;3.70;99.90;;;;;;4162439;28;20527;-64
2022/01/16 03:05:00;;;;;;;36.28;18.40;;;3.80;99.90;;;;;;4162155;28;20064;-64
2022/01/16 03:07:03;;;;;;;36.45;20.05;;;3.70;99.90;;;;;;4161226;28;20037;-64
2022/01/16 03:09:09;;;;;;;35.00;18.92;;;3.70;99.90;;;;;;4160644;28;20037;-64
2022/01/16 03:11:21;;;;;;;37.83;19.42;;;3.70;99.90;;;;;;4164050;28;20481;-64
2022/01/16 03:13:22;;;;;;;41.33;20.80;;;3.70;99.90;;;;;;4165611;28;20030;-64
2022/01/16 03:15:23;;;;;;;42.78;20.90;;;3.70;99.90;;;;;;4164418;28;20052;-65
2022/01/16 03:17:38;;;;;;;33.15;18.30;;;3.70;99.90;;;;;;4165170;28;20084;-65
2022/01/16 03:22:02;;;;;;;40.60;20.52;;;3.70;99.90;;;;;;4163920;28;20034;-64
2022/01/16 03:24:03;;;;;;;39.40;20.15;;;3.60;99.90;;;;;;4165086;28;20038;-64
2022/01/16 03:26:04;;;;;;;38.17;20.55;;;3.60;99.90;;;;;;4164472;28;20067;-64
2022/01/16 03:28:05;;;;;;;38.22;20.00;;;3.60;99.90;;;;;;4165518;28;20049;-64
2022/01/16 03:30:07;;;;;;;44.08;21.45;;;3.60;99.90;;;;;;4164923;28;20034;-65
2022/01/16 03:32:09;;;;;;;;;;;3.60;99.90;;;;;;4165490;28;20484;-64
2022/01/16 03:34:09;;;;;;;37.88;19.60;;;3.60;99.90;;;;;;4164916;28;19909;-64
2022/01/16 03:36:11;;;;;;;42.60;21.77;;;3.60;99.90;;;;;;4164593;28;20500;-64
2022/01/16 03:38:12;;;;;;;40.33;21.02;;;3.60;99.90;;;;;;4165216;28;20037;-64
2022/01/16 03:40:14;;;;;;;39.50;20.50;;;3.60;99.90;;;;;;4164010;28;20548;-64
2022/01/16 03:42:21;;;;;;;38.05;19.17;;;3.60;99.90;;;;;;4164772;28;20049;-64
2022/01/16 03:44:22;;;;;;;41.88;20.55;;;3.70;99.90;;;;;;4164698;28;20038;-64
2022/01/16 03:46:23;;;;;;;34.35;19.42;;;3.70;99.90;;;;;;4163771;28;20042;-66
2022/01/16 03:48:24;;;;;;;41.05;21.25;;;3.70;99.90;;;;;;4165230;28;20025;-65
2022/01/16 03:50:24;;;;;;;46.58;22.38;;;3.70;99.90;;;;;;4164361;28;20034;-65
2022/01/16 03:52:25;;;;;;;42.15;21.42;;;3.70;99.90;;;;;;4165126;28;20038;-65
2022/01/16 03:54:28;;;;;;;45.58;22.17;;;3.70;99.90;;;;;;4164471;28;20029;-64
2022/01/16 03:56:29;;;;;;;48.70;23.38;;;3.70;99.90;;;;;;4163992;28;20114;-64
2022/01/16 03:58:30;;;;;;;41.85;21.92;;;3.70;99.90;;;;;;4164957;28;20477;-64
2022/01/16 04:00:30;;;;;;;46.28;22.88;;;3.70;99.90;;;;;;4163933;28;20150;-64
2022/01/16 04:02:31;;;;;;;45.83;23.05;;;3.70;99.90;;;;;;4164567;28;20365;-64
2022/01/16 04:04:32;;;;;;;49.33;23.05;;;3.70;99.90;;;;;;4164660;28;20025;-64
2022/01/16 04:06:33;;;;;;;50.55;23.48;;;3.70;99.90;;;;;;4159612;28;20087;-64
2022/01/16 04:08:33;;;;;;;54.92;24.73;;;3.70;99.90;;;;;;4164616;28;20039;-64
2022/01/16 04:10:34;;;;;;;50.60;24.13;;;3.60;99.90;;;;;;4155451;28;20061;-64
2022/01/16 04:12:38;;;;;;;42.42;22.35;;;3.70;99.90;;;;;;4164452;28;20046;-64
2022/01/16 04:16:48;;;;;;;46.95;23.52;;;3.60;99.90;;;;;;4160039;28;20045;-64
2022/01/16 04:18:51;;;;;;;47.05;23.23;;;3.70;99.90;;;;;;4164851;28;20042;-64
2022/01/16 04:20:52;;;;;;;51.65;24.42;;;3.70;99.90;;;;;;4164004;28;20037;-64
2022/01/16 04:22:52;;;;;;;48.55;23.08;;;3.70;99.90;;;;;;4151344;28;20149;-64
2022/01/16 04:24:53;;;;;;;52.35;24.75;;;3.70;99.90;;;;;;4147739;28;20054;-70
2022/01/16 04:26:53;;;;;;;46.20;22.85;;;3.70;99.90;;;;;;4154822;28;20435;-65
2022/01/16 04:28:55;;;;;;;47.47;22.52;;;3.70;99.90;;;;;;4164477;28;20476;-65
2022/01/16 04:30:55;;;;;;;52.55;24.73;;;3.70;99.90;;;;;;4163582;28;20481;-64
2022/01/16 04:32:56;;;;;;;54.72;24.67;;;3.80;99.90;;;;;;4164373;28;20047;-64
2022/01/16 04:34:56;;;;;;;52.42;24.05;;;3.70;99.90;;;;;;4164462;28;20042;-64
2022/01/16 04:36:57;;;;;;;54.90;24.98;;;3.80;99.90;;;;;;4163554;28;20179;-64
2022/01/16 04:38:58;;;;;;;48.92;22.90;;;3.80;99.90;;;;;;4164011;28;20484;-64
2022/01/16 04:45:37;;;;;;;54.92;25.65;;;3.80;99.90;;;;;;4162197;28;20053;-64
2022/01/16 04:47:38;;;;;;;56.45;25.80;;;3.80;99.90;;;;;;4164046;28;20080;-64
2022/01/16 04:49:38;;;;;;;51.58;24.23;;;3.80;99.90;;;;;;4164139;28;20084;-64
2022/01/16 04:51:39;;;;;;;59.17;27.25;;;3.80;99.90;;;;;;4163404;28;20449;-64
2022/01/16 04:53:41;;;;;;;53.15;25.88;;;3.80;99.90;;;;;;4163948;28;20473;-64
2022/01/16 04:55:43;;;;;;;48.13;23.35;;;3.80;99.90;;;;;;4163134;28;20489;-64
2022/01/16 04:57:43;;;;;;;54.92;24.85;;;3.80;99.90;;;;;;4164174;28;20083;-64
2022/01/16 04:59:44;;;;;;;52.05;24.33;;;3.90;99.90;;;;;;4163680;28;20457;-64
2022/01/16 05:01:46;;;;;;;55.53;25.52;;;3.90;99.90;;;;;;4162117;28;20037;-64
2022/01/16 05:03:46;;;;;;;57.28;24.48;;;3.90;99.90;;;;;;4163132;28;20083;-64
2022/01/16 05:05:47;;;;;;;55.70;26.13;;;3.90;99.90;;;;;;4162917;28;20085;-64
2022/01/16 05:07:47;;;;;;;64.03;27.92;;;3.90;99.90;;;;;;4162542;28;20447;-64
2022/01/16 05:09:48;;;;;;;61.30;27.23;;;3.90;99.90;;;;;;4163626;28;20057;-64
2022/01/16 05:11:55;;;;;;;56.15;26.88;;;3.90;99.90;;;;;;4160855;28;20041;-64
2022/01/16 05:18:15;;;;;;;58.83;27.60;;;3.80;99.90;;;;;;4163521;28;20042;-64
2022/01/16 05:20:16;;;;;;;60.10;29.23;;;3.80;99.90;;;;;;4162137;28;20075;-64
2022/01/16 05:22:17;;;;;;;54.55;26.45;;;3.80;99.90;;;;;;4160674;28;20038;-64
2022/01/16 05:24:17;;;;;;;53.70;26.35;;;3.90;99.90;;;;;;4163683;28;20033;-64
2022/01/16 05:26:24;;;;;;;54.47;26.08;;;3.80;99.90;;;;;;4162597;28;20095;-64
2022/01/16 05:28:25;;;;;;;57.35;28.58;;;3.90;99.90;;;;;;4162685;28;20025;-64
2022/01/16 05:30:27;;;;;;;62.95;28.48;;;3.90;99.90;;;;;;4161292;28;20077;-64
2022/01/16 05:32:27;;;;;;;61.10;30.15;;;3.90;99.90;;;;;;4161823;28;20386;-64
2022/01/16 05:34:29;;;;;;;57.60;27.45;;;3.90;99.90;;;;;;4163113;28;20046;-65
2022/01/16 05:36:30;;;;;;;65.05;29.33;;;3.90;99.90;;;;;;4162574;28;20037;-65
2022/01/16 05:38:31;;;;;;;58.78;28.52;;;3.90;99.90;;;;;;4162093;28;20041;-64
2022/01/16 05:40:31;;;;;;;62.03;29.58;;;3.90;99.90;;;;;;4160003;28;20044;-64
2022/01/16 05:42:32;;;;;;;56.15;27.95;;;3.80;99.90;;;;;;4159384;28;20041;-64
2022/01/16 05:44:33;;;;;;;57.42;29.27;;;3.90;99.90;;;;;;4162944;28;20107;-64
2022/01/16 05:46:34;;;;;;;65.72;29.63;;;3.90;99.90;;;;;;4162339;28;20467;-64
2022/01/16 05:48:34;;;;;;;62.00;29.75;;;3.90;99.90;;;;;;4163350;28;20040;-64
2022/01/16 05:50:35;;;;;;;62.75;29.73;;;3.80;99.90;;;;;;4161555;28;20084;-64
2022/01/16 05:52:36;;;;;;;68.45;31.10;;;3.80;99.90;;;;;;4161692;28;20029;-64
2022/01/16 05:54:36;;;;;;;64.35;30.40;;;3.90;99.90;;;;;;4163278;28;20041;-64
2022/01/16 05:56:37;;;;;;;56.45;29.42;;;3.90;99.90;;;;;;4162378;28;20047;-64
2022/01/16 05:58:38;;;;;;;58.42;29.20;;;3.90;99.90;;;;;;4162902;28;20034;-64
2022/01/16 06:00:39;;;;;;;56.55;28.13;;;4.00;99.90;;;;;;4155473;28;20092;-64
2022/01/16 06:02:41;;;;;;;54.67;29.00;;;4.00;99.90;;;;;;4159166;28;20042;-64
2022/01/16 06:04:42;;;;;;;56.10;28.13;;;3.90;99.90;;;;;;4162718;28;20042;-64
2022/01/16 06:06:42;;;;;;;53.55;26.85;;;3.90;99.90;;;;;;4161687;28;20045;-64
2022/01/16 06:08:43;;;;;;;53.42;27.83;;;3.90;99.90;;;;;;4163482;28;20030;-64
2022/01/16 06:10:47;;;;;;;66.03;30.85;;;3.90;99.90;;;;;;4160341;28;20037;-64
2022/01/16 06:12:47;;;;;;;59.30;30.25;;;4.00;99.90;;;;;;4162163;28;20040;-64
2022/01/16 06:14:48;;;;;;;56.75;28.17;;;3.90;99.90;;;;;;4162716;28;20132;-64
2022/01/16 06:16:49;;;;;;;59.92;30.48;;;4.00;99.90;;;;;;4161857;28;20100;-64
2022/01/16 06:18:51;;;;;;;55.42;28.13;;;4.00;99.90;;;;;;4163008;28;20103;-64
2022/01/16 06:20:52;;;;;;;60.70;31.42;;;4.00;99.90;;;;;;4160749;28;20042;-64
2022/01/16 06:22:53;;;;;;;59.22;29.40;;;4.00;99.90;;;;;;4159422;28;20133;-64
2022/01/16 06:24:54;;;;;;;51.15;27.35;;;4.00;99.90;;;;;;4162909;28;20480;-64
2022/01/16 06:26:55;;;;;;;62.28;31.65;;;4.00;99.90;;;;;;4162021;28;20037;-69
2022/01/16 06:28:55;;;;;;;60.10;30.23;;;4.00;99.90;;;;;;4159782;28;20124;-65
2022/01/16 06:30:56;;;;;;;63.45;32.60;;;4.00;99.90;;;;;;4158825;28;20531;-64
2022/01/16 06:32:57;;;;;;;55.05;29.30;;;4.00;99.90;;;;;;4161951;28;20049;-64
2022/01/16 06:34:57;;;;;;;66.10;33.60;;;4.00;99.90;;;;;;4160646;28;20045;-64
2022/01/16 06:36:58;;;;;;;57.65;31.42;;;4.00;99.90;;;;;;4161741;28;20034;-64
2022/01/16 06:39:00;;;;;;;56.42;29.58;;;4.00;99.90;;;;;;4160968;28;20041;-64
2022/01/16 06:41:00;;;;;;;55.28;30.48;;;4.10;99.90;;;;;;4155478;28;20046;-64
2022/01/16 06:43:01;;;;;;;60.30;32.03;;;4.00;99.90;;;;;;4159131;28;20049;-64
2022/01/16 06:45:02;;;;;;;57.17;30.40;;;4.00;99.90;;;;;;4161795;28;20042;-64
2022/01/16 06:47:03;;;;;;;54.63;29.50;;;4.00;99.90;;;;;;4164027;28;20461;-64
2022/01/16 06:49:03;;;;;;;53.60;28.90;;;4.10;99.90;;;;;;4165496;28;20037;-64
2022/01/16 06:51:04;;;;;;;63.28;34.63;;;4.10;99.90;;;;;;4161735;28;20392;-64
2022/01/16 06:53:04;;;;;;;59.00;31.38;;;4.10;99.90;;;;;;4161121;28;20148;-64
2022/01/16 06:55:06;;;;;;;55.33;29.77;;;4.10;99.90;;;;;;4163752;28;20060;-65
2022/01/16 06:57:08;;;;;;;56.95;30.85;;;4.10;99.90;;;;;;4160832;28;20045;-63
2022/01/16 06:59:09;;;;;;;56.47;31.65;;;4.10;99.90;;;;;;4162490;28;20064;-64
2022/01/16 07:01:10;;;;;;;59.92;31.95;;;4.10;99.90;;;;;;4160524;28;20029;-64
2022/01/16 07:03:11;;;;;;;57.33;32.38;;;4.00;99.90;;;;;;4160544;28;20065;-64
2022/01/16 07:05:11;;;;;;;64.35;34.00;;;4.10;99.90;;;;;;4162170;28;20049;-65
2022/01/16 07:07:12;;;;;;;58.17;31.02;;;4.10;99.90;;;;;;4163482;28;20469;-64
2022/01/16 07:09:12;;;;;;;57.20;31.52;;;4.10;99.90;;;;;;4162308;28;20040;-64
2022/01/16 07:11:13;;;;;;;59.90;33.35;;;4.10;99.90;;;;;;4159817;28;20030;-64
2022/01/16 07:13:14;;;;;;;56.17;29.60;;;4.10;99.90;;;;;;4162805;28;20092;-64
2022/01/16 07:15:14;;;;;;;51.42;30.05;;;4.10;99.90;;;;;;4163554;28;20443;-64
2022/01/16 07:17:15;;;;;;;59.80;31.80;;;4.20;99.90;;;;;;4162247;28;20049;-64
2022/01/16 07:19:16;;;;;;;55.95;29.90;;;4.10;99.90;;;;;;4163682;28;20072;-64
2022/01/16 07:21:16;;;;;;;54.92;30.08;;;4.20;99.90;;;;;;4162122;28;20041;-64
2022/01/16 07:23:17;;;;;;;56.35;31.77;;;4.20;99.90;;;;;;4163699;28;20030;-64
2022/01/16 07:25:18;;;;;;;50.90;29.67;;;4.20;99.90;;;;;;4159240;28;20050;-64
2022/01/16 07:27:19;;;;;;;61.15;33.35;;;4.30;99.90;;;;;;4160338;28;20034;-64
2022/01/16 07:29:20;;;;;;;56.70;32.20;;;4.20;99.90;;;;;;4158826;28;20069;-64
2022/01/16 07:31:21;;;;;;;58.47;33.55;;;4.30;99.90;;;;;;4161939;28;20452;-64
2022/01/16 07:33:21;;;;;;;53.72;31.02;;;4.30;99.90;;;;;;4163734;28;20083;-64
2022/01/16 07:35:22;;;;;;;63.10;33.70;;;4.30;99.90;;;;;;4163492;28;20044;-64
2022/01/16 07:37:23;;;;;;;54.25;30.90;;;4.30;99.90;;;;;;4160984;28;20053;-64
2022/01/16 07:39:24;;;;;;;63.72;33.42;;;4.30;99.90;;;;;;4163690;28;20038;-64
2022/01/16 07:41:25;;;;;;;58.10;31.70;;;4.30;99.90;;;;;;4161875;28;20041;-64
2022/01/16 07:43:25;;;;;;;57.70;32.13;;;4.30;99.90;;;;;;4161551;28;20045;-65
2022/01/16 07:45:26;;;;;;;60.80;34.20;;;4.30;99.90;;;;;;4163967;28;20053;-65
2022/01/16 07:47:27;;;;;;;63.00;34.38;;;4.30;99.90;;;;;;4163755;28;20112;-64
2022/01/16 07:49:27;;;;;;;64.30;34.78;;;4.40;99.90;;;;;;4161702;28;20057;-65
2022/01/16 07:51:29;;;;;;;63.28;34.58;;;4.40;99.90;;;;;;4161064;28;20036;-64
2022/01/16 07:53:30;;;;;;;62.90;34.57;;;4.40;99.90;;;;;;4162642;28;20100;-64
2022/01/16 07:55:31;;;;;;;64.63;33.90;;;4.40;99.90;;;;;;4163885;28;20053;-64
2022/01/16 07:57:31;;;;;;;63.05;34.00;;;4.40;99.90;;;;;;4162865;28;20484;-64
2022/01/16 07:59:32;;;;;;;63.45;35.58;;;4.40;99.90;;;;;;4164092;28;20025;-64
2022/01/16 08:01:33;;;;;;;63.63;34.90;;;4.40;99.90;;;;;;4160411;28;20484;-64
2022/01/16 08:03:33;;;;;;;68.68;35.78;;;4.40;99.90;;;;;;4161736;28;20030;-64
2022/01/16 08:05:34;;;;;;;66.18;35.92;;;4.50;99.90;;;;;;4161588;28;20110;-64
2022/01/16 08:07:35;;;;;;;58.05;31.58;;;4.50;99.90;;;;;;4163559;28;20447;-64
2022/01/16 08:09:37;;;;;;;63.33;34.65;;;4.50;99.90;;;;;;4163280;28;20029;-64
2022/01/16 08:11:38;;;;;;;62.67;34.33;;;4.60;99.90;;;;;;4158878;28;20166;-64
2022/01/16 08:13:39;;;;;;;62.97;33.75;;;4.50;99.90;;;;;;4163825;28;20412;-64
2022/01/16 08:15:40;;;;;;;63.20;33.72;;;4.60;99.90;;;;;;4164016;28;20042;-64
2022/01/16 08:17:41;;;;;;;62.22;34.85;;;4.60;99.90;;;;;;4164286;28;20116;-64
2022/01/16 08:19:41;;;;;;;62.33;34.15;;;4.60;99.90;;;;;;4164027;28;20044;-64
2022/01/16 08:21:42;;;;;;;64.28;34.33;;;4.60;99.90;;;;;;4162081;28;20112;-64
2022/01/16 08:23:43;;;;;;;56.65;33.00;;;4.60;99.90;;;;;;4163823;28;20052;-64
2022/01/16 08:25:43;;;;;;;51.47;30.52;;;4.60;99.90;;;;;;4163384;28;20463;-64
2022/01/16 08:27:44;;;;;;;64.57;35.08;;;4.60;99.90;;;;;;4163931;28;20129;-64
2022/01/16 08:29:45;;;;;;;58.85;33.17;;;4.70;99.90;;;;;;4162044;28;20040;-64
2022/01/16 08:31:45;;;;;;;59.50;31.90;;;4.70;99.90;;;;;;4160138;28;22938;-64
2022/01/16 08:33:46;;;;;;;60.63;34.28;;;4.70;99.90;;;;;;4163538;28;20038;-64
2022/01/16 08:35:47;;;;;;;65.18;34.17;;;4.70;99.90;;;;;;4163119;28;20030;-64
2022/01/16 08:37:48;;;;;;;55.75;31.25;;;4.80;99.90;;;;;;4161256;28;20030;-64
2022/01/16 08:39:49;;;;;;;59.47;32.78;;;4.70;99.90;;;;;;4159012;28;20120;-64
2022/01/16 08:41:50;;;;;;;58.95;34.05;;;4.70;99.90;;;;;;4161592;28;20049;-64
2022/01/16 08:43:51;;;;;;;59.72;32.88;;;4.80;99.90;;;;;;4164697;28;21334;-63
2022/01/16 08:45:52;;;;;;;60.07;32.27;;;4.80;99.90;;;;;;4163253;28;20148;-64
2022/01/16 08:47:52;;;;;;;63.05;33.75;;;4.80;99.90;;;;;;4163929;28;20045;-64
2022/01/16 08:49:53;;;;;;;55.65;31.23;;;4.80;99.90;;;;;;4162554;28;20041;-64
2022/01/16 08:51:55;;;;;;;58.33;32.15;;;4.80;99.90;;;;;;4159337;28;20048;-64
2022/01/16 08:53:55;;;;;;;60.67;31.77;;;4.80;99.90;;;;;;4163732;28;20091;-64
2022/01/16 08:55:57;;;;;;;63.95;33.03;;;4.90;99.90;;;;;;4162757;28;20427;-67
2022/01/16 08:57:59;;;;;;;63.42;33.55;;;4.90;99.90;;;;;;4163546;28;20128;-65
2022/01/16 08:59:59;;;;;;;58.43;31.43;;;4.80;99.90;;;;;;4163830;28;20044;-64
2022/01/16 09:02:00;;;;;;;63.65;33.08;;;4.80;99.90;;;;;;4157704;28;20848;-64
2022/01/16 09:04:01;;;;;;;59.75;31.05;;;4.90;99.90;;;;;;4163272;28;20038;-64
2022/01/16 09:06:01;;;;;;;58.53;31.25;;;4.90;99.90;;;;;;4162635;28;20076;-64
2022/01/16 09:08:02;;;;;;;55.80;31.48;;;4.90;99.90;;;;;;4161078;28;20536;-64
2022/01/16 09:10:04;;;;;;;57.50;31.42;;;4.90;99.90;;;;;;4162655;28;20421;-65
2022/01/16 09:12:05;;;;;;;57.95;30.92;;;4.90;99.90;;;;;;4158312;28;20665;-64
2022/01/16 09:14:06;;;;;;;55.92;29.95;;;4.90;99.90;;;;;;4163560;28;20461;-64
2022/01/16 09:16:08;;;;;;;55.05;31.55;;;4.90;99.90;;;;;;4160252;28;20167;-64
2022/01/16 09:18:08;;;;;;;51.92;29.75;;;5.00;99.90;;;;;;4161047;28;20041;-64
2022/01/16 09:20:13;;;;;;;54.58;30.05;;;5.00;99.90;;;;;;4163147;28;20393;-65
2022/01/16 09:22:14;;;;;;;56.15;30.35;;;5.00;99.90;;;;;;4161414;28;20033;-64
2022/01/16 09:24:15;;;;;;;55.47;29.83;;;5.00;99.90;;;;;;4163056;28;20068;-64
2022/01/16 09:26:15;;;;;;;53.53;28.25;;;5.00;99.90;;;;;;4162396;28;20057;-64
2022/01/16 09:28:16;;;;;;;58.58;29.80;;;5.10;99.90;;;;;;4163537;28;20120;-64
2022/01/16 09:30:20;;;;;;;55.80;30.17;;;5.10;99.90;;;;;;4161297;28;20044;-64
2022/01/16 09:32:20;;;;;;;55.30;30.70;;;5.10;99.90;;;;;;4161986;28;20037;-64
2022/01/16 09:34:21;;;;;;;55.97;29.80;;;5.10;99.90;;;;;;4161563;28;20426;-64
2022/01/16 09:36:21;;;;;;;55.90;29.95;;;5.10;99.90;;;;;;4157940;28;20033;-64
2022/01/16 09:38:22;;;;;;;50.17;26.92;;;5.10;99.90;;;;;;4159971;28;20037;-64
2022/01/16 09:40:23;;;;;;;52.38;29.30;;;5.20;99.90;;;;;;4159047;28;20042;-64
2022/01/16 09:42:24;;;;;;;56.00;28.80;;;5.10;99.90;;;;;;4159621;28;20084;-64
2022/01/16 09:44:28;;;;;;;;;;;5.20;99.90;;;;;;4160634;28;20681;-64
2022/01/16 09:46:28;;;;;;;47.30;25.77;;;5.20;99.90;;;;;;4158793;28;19951;-65
2022/01/16 09:48:29;;;;;;;53.22;27.83;;;5.20;99.90;;;;;;4160776;28;20061;-65
2022/01/16 09:50:30;;;;;;;54.88;28.63;;;5.20;99.90;;;;;;4157180;28;20946;-65
2022/01/16 09:52:39;;;;;;;53.15;28.05;;;5.20;99.90;;;;;;4157499;28;20467;-64
2022/01/16 09:54:40;;;;;;;49.50;26.23;;;5.20;99.90;;;;;;4160415;28;20053;-64
2022/01/16 09:56:40;;;;;;;54.88;28.00;;;5.30;99.90;;;;;;4159739;28;20037;-64
2022/01/16 09:58:41;;;;;;;48.60;26.38;;;5.20;99.90;;;;;;4160824;28;20041;-64
2022/01/16 10:00:42;;;;;;;51.45;28.48;;;5.30;99.90;;;;;;4158946;28;20041;-64
2022/01/16 10:02:42;;;;;;;49.60;27.15;;;5.30;99.90;;;;;;4158449;28;20026;-64
2022/01/16 10:04:44;;;;;;;52.35;28.30;;;5.30;99.90;;;;;;4158346;28;20087;-64
2022/01/16 10:06:55;;;;;;;54.28;28.52;;;5.30;99.90;;;;;;4159357;28;20040;-64
2022/01/16 10:08:56;;;;;;;47.90;26.10;;;5.30;99.90;;;;;;4159447;28;20042;-64
2022/01/16 10:10:58;;;;;;;48.60;28.17;;;5.40;99.90;;;;;;4157411;28;20571;-64
2022/01/16 10:13:09;;;;;;;54.00;27.45;;;5.40;99.90;;;;;;4157530;28;20428;-65
2022/01/16 10:15:26;;;;;;;47.63;27.20;;;5.30;99.90;;;;;;4157712;28;20049;-65
2022/01/16 10:17:27;;;;;;;52.90;27.52;;;5.40;99.90;;;;;;4159407;28;20049;-64
2022/01/16 10:19:29;;;;;;;57.25;28.42;;;5.30;99.90;;;;;;4159472;28;20045;-64
2022/01/16 10:21:40;;;;;;;53.13;29.25;;;5.40;99.90;;;;;;4156601;28;20486;-64
2022/01/16 10:23:43;;;;;;;54.92;28.90;;;5.40;99.90;;;;;;4160153;28;20068;-64
2022/01/16 10:25:47;;;;;;;55.50;29.25;;;5.30;99.90;;;;;;4158879;28;20054;-64
2022/01/16 10:27:48;;;;;;;53.38;27.65;;;5.40;99.90;;;;;;4158126;28;20040;-64
2022/01/16 10:29:56;;;;;;;54.25;28.20;;;5.30;99.90;;;;;;4158823;28;20497;-64
2022/01/16 10:32:17;;;;;;;60.25;30.92;;;5.40;99.90;;;;;;4155779;28;20068;-64
2022/01/16 10:34:31;;;;;;;56.00;29.40;;;5.30;99.90;;;;;;4158220;28;20042;-64
2022/01/16 10:36:37;;;;;;;58.67;30.25;;;5.40;99.90;;;;;;4158437;28;20041;-65
2022/01/16 10:38:37;;;;;;;52.47;28.35;;;5.40;99.90;;;;;;4160003;28;20069;-66
2022/01/16 10:40:39;;;;;;;52.08;28.30;;;5.40;99.90;;;;;;4158518;28;20507;-64
2022/01/16 10:42:41;;;;;;;54.75;29.42;;;5.40;99.90;;;;;;4159077;28;20489;-64
2022/01/16 10:44:43;;;;;;;55.97;29.58;;;5.40;99.90;;;;;;4159560;28;20110;-64
2022/01/16 10:46:43;;;;;;;67.80;33.05;;;5.40;99.90;;;;;;4157906;28;20084;-64
2022/01/16 10:48:45;;;;;;;59.95;31.02;;;5.40;99.90;;;;;;4159505;28;20026;-64
2022/01/16 10:50:47;;;;;;;58.40;30.70;;;5.40;99.90;;;;;;4158157;28;20551;-64
2022/01/16 10:52:59;;;;;;;62.25;30.42;;;5.50;99.90;;;;;;4158207;28;20092;-64
2022/01/16 10:55:08;;;;;;;63.10;32.80;;;5.50;99.90;;;;;;4159653;28;20404;-65
2022/01/16 10:57:23;;;;;;;62.03;32.03;;;5.50;99.90;;;;;;4157604;28;20080;-65
2022/01/16 10:59:24;;;;;;;65.82;33.00;;;5.50;99.90;;;;;;4158517;28;20065;-64
2022/01/16 11:01:25;;;;;;;69.18;35.10;;;5.50;99.90;;;;;;4158202;28;20041;-64
2022/01/16 11:03:28;;;;;;;75.72;36.65;;;5.50;99.90;;;;;;4159498;28;20042;-65
2022/01/16 11:05:32;;;;;;;;;;;5.50;99.90;;;;;;4159005;28;20053;-65
2022/01/16 11:07:32;;;;;;;61.35;30.75;;;5.60;99.90;;;;;;4143247;28;19917;-64
2022/01/16 11:09:33;;;;;;;64.13;32.35;;;5.60;99.90;;;;;;4143282;28;20050;-64